createdAt,value
2022-11-16T00:03:56.021Z,6.87
2022-11-16T00:09:15.712Z,7.04
2022-11-16T00:14:17.018Z,7.05
2022-11-16T00:19:18.474Z,6.51
2022-11-16T00:24:19.850Z,6.30
2022-11-16T00:29:21.208Z,6.45
2022-11-16T00:34:22.572Z,6.15
2022-11-16T00:39:23.841Z,6.35
2022-11-16T00:44:25.111Z,6.07
2022-11-16T00:49:26.379Z,6.62
2022-11-16T00:54:27.691Z,6.45
2022-11-16T00:59:29.056Z,6.34
2022-11-16T01:04:30.408Z,6.07
2022-11-16T01:09:31.758Z,5.95
2022-11-16T01:14:33.150Z,6.28
2022-11-16T01:19:34.553Z,6.43
2022-11-16T01:24:35.793Z,6.66
2022-11-16T01:29:37.045Z,6.56
2022-11-16T01:34:38.286Z,6.79
2022-11-16T01:39:39.518Z,6.64
2022-11-16T01:44:40.735Z,6.64
2022-11-16T01:49:41.970Z,6.58
2022-11-16T01:54:43.285Z,6.37
2022-11-16T01:59:44.490Z,6.41
2022-11-16T02:04:45.732Z,6.28
2022-11-16T02:09:57.407Z,6.20
2022-11-16T02:14:58.771Z,6.20
2022-11-16T02:20:00.132Z,6.32
2022-11-16T02:25:01.480Z,6.41
2022-11-16T02:30:02.724Z,6.56
2022-11-16T02:35:04.043Z,6.68
2022-11-16T02:40:05.290Z,6.92
2022-11-16T02:45:06.502Z,6.97
2022-11-16T02:50:07.793Z,6.86
2022-11-16T02:55:09.004Z,6.77
2022-11-16T03:00:10.254Z,6.64
2022-11-16T03:05:11.482Z,6.85
2022-11-16T03:10:32.673Z,6.82
2022-11-16T03:15:34.060Z,6.92
2022-11-16T03:20:35.382Z,7.15
2022-11-16T03:25:36.629Z,7.00
2022-11-16T03:30:37.857Z,7.24
2022-11-16T03:35:39.085Z,7.17
2022-11-16T03:40:40.329Z,7.41
2022-11-16T03:45:41.593Z,7.18
2022-11-16T03:50:42.928Z,7.49
2022-11-16T03:55:49.574Z,7.47
2022-11-16T04:00:51.285Z,7.47
2022-11-16T04:06:11.274Z,7.35
2022-11-16T04:11:31.186Z,7.31
2022-11-16T04:16:50.974Z,7.32
2022-11-16T04:22:10.926Z,7.31
2022-11-16T04:27:31.074Z,7.11
2022-11-16T04:32:51.351Z,7.24
2022-11-16T04:37:53.393Z,7.04
2022-11-16T04:42:54.851Z,7.00
2022-11-16T04:47:56.240Z,6.89
2022-11-16T04:52:57.442Z,7.03
2022-11-16T04:57:58.654Z,7.14
2022-11-16T05:03:01.841Z,7.09
2022-11-16T05:08:03.254Z,6.63
2022-11-16T05:13:04.492Z,6.89
2022-11-16T05:18:05.779Z,7.13
2022-11-16T05:23:27.021Z,6.56
2022-11-16T05:28:28.276Z,6.08
2022-11-16T05:33:29.496Z,5.75
2022-11-16T05:38:30.869Z,5.70
2022-11-16T05:43:32.222Z,6.08
2022-11-16T05:48:33.803Z,6.59
2022-11-16T05:53:35.248Z,6.86
2022-11-16T05:58:36.769Z,7.13
2022-11-16T06:03:38.186Z,7.09
2022-11-16T06:08:39.424Z,7.20
2022-11-16T06:13:40.680Z,7.34
2022-11-16T06:18:41.931Z,7.52
2022-11-16T06:23:43.261Z,7.54
2022-11-16T06:28:44.832Z,7.47
2022-11-16T06:33:46.069Z,7.38
2022-11-16T06:38:47.368Z,7.53
2022-11-16T06:43:48.688Z,7.58
2022-11-16T06:48:50.081Z,7.55
2022-11-16T06:53:51.358Z,7.67
2022-11-16T06:58:53.678Z,7.69
2022-11-16T07:03:55.121Z,7.51
2022-11-16T07:08:56.434Z,7.25
2022-11-16T07:13:57.795Z,7.42
2022-11-16T07:18:59.304Z,7.55
2022-11-16T07:24:00.539Z,7.54
2022-11-16T07:29:01.773Z,7.43
2022-11-16T07:34:03.004Z,7.49
2022-11-16T07:39:04.213Z,7.54
2022-11-16T07:44:08.427Z,7.50
2022-11-16T07:49:13.106Z,7.31
2022-11-16T07:54:14.399Z,7.32
2022-11-16T07:59:15.680Z,7.28
2022-11-16T08:04:17.551Z,7.13
2022-11-16T08:09:18.918Z,6.89
2022-11-16T08:14:20.720Z,6.67
2022-11-16T08:19:22.073Z,6.71
2022-11-16T08:24:23.901Z,7.04
2022-11-16T08:29:25.586Z,7.11
2022-11-16T08:34:26.842Z,6.99
2022-11-16T08:39:28.169Z,7.08
2022-11-16T08:44:29.888Z,7.00
2022-11-16T08:49:31.625Z,7.15
2022-11-16T08:54:32.923Z,7.18
2022-11-16T08:59:34.579Z,7.36
2022-11-16T09:04:37.343Z,7.35
2022-11-16T09:09:38.721Z,7.52
2022-11-16T09:14:39.997Z,7.51
2022-11-16T09:19:41.295Z,7.62
2022-11-16T09:24:43.157Z,7.97
2022-11-16T09:29:45.498Z,7.85
2022-11-16T09:34:46.753Z,7.84
2022-11-16T09:39:48.254Z,7.91
2022-11-16T09:44:49.573Z,7.97
2022-11-16T09:49:50.845Z,7.95
2022-11-16T09:54:52.114Z,8.01
2022-11-16T09:59:53.394Z,8.05
2022-11-16T10:04:58.269Z,8.24
2022-11-16T10:10:00.048Z,8.50
2022-11-16T10:15:06.687Z,8.57
2022-11-16T10:20:08.001Z,8.66
2022-11-16T10:25:09.452Z,8.70
2022-11-16T10:30:10.952Z,8.89
2022-11-16T10:35:12.276Z,8.83
2022-11-16T10:40:13.530Z,8.60
2022-11-16T10:45:14.848Z,8.58
2022-11-16T10:50:16.173Z,8.29
2022-11-16T10:55:17.464Z,8.20
2022-11-16T11:00:22.228Z,8.37
2022-11-16T11:05:25.155Z,8.60
2022-11-16T11:10:28.588Z,8.43
2022-11-16T11:15:29.809Z,8.69
2022-11-16T11:20:31.034Z,8.39
2022-11-16T11:25:32.472Z,8.54
2022-11-16T11:30:33.719Z,8.64
2022-11-16T11:35:35.057Z,8.90
2022-11-16T11:40:36.342Z,8.71
2022-11-16T11:45:37.592Z,8.49
2022-11-16T11:50:39.931Z,8.58
2022-11-16T11:55:41.150Z,8.44
2022-11-16T12:00:42.388Z,8.39
2022-11-16T12:05:43.661Z,8.54
2022-11-16T12:10:46.182Z,8.61
2022-11-16T12:15:47.425Z,8.58
2022-11-16T12:20:48.681Z,8.79
2022-11-16T12:25:49.938Z,8.54
2022-11-16T12:30:51.170Z,8.77
2022-11-16T12:35:52.393Z,8.82
2022-11-16T12:40:53.606Z,8.88
2022-11-16T12:45:54.893Z,8.93
2022-11-16T12:50:56.161Z,8.88
2022-11-16T12:55:57.368Z,8.54
2022-11-16T13:00:59.542Z,8.64
2022-11-16T13:06:00.862Z,8.94
2022-11-16T13:11:02.080Z,9.15
2022-11-16T13:16:03.346Z,9.35
2022-11-16T13:21:04.546Z,9.31
2022-11-16T13:26:10.376Z,9.40
2022-11-16T13:31:11.710Z,9.49
2022-11-16T13:36:12.906Z,9.47
2022-11-16T13:41:14.131Z,9.38
2022-11-16T13:46:48.219Z,9.27
2022-11-16T13:51:36.508Z,9.30
2022-11-16T13:56:37.782Z,9.32
2022-11-16T14:01:39.148Z,9.30
2022-11-16T14:06:40.382Z,9.43
2022-11-16T14:11:41.666Z,9.47
2022-11-16T14:16:43.137Z,9.58
2022-11-16T14:21:44.336Z,9.58
2022-11-16T14:26:45.634Z,9.56
2022-11-16T14:31:46.841Z,9.41
2022-11-16T14:36:48.185Z,9.44
2022-11-16T14:41:49.451Z,9.63
2022-11-16T14:46:50.769Z,9.64
2022-11-16T14:51:52.005Z,9.33
2022-11-16T14:56:53.217Z,9.04
2022-11-16T15:01:54.483Z,8.91
2022-11-16T15:06:55.731Z,8.81
2022-11-16T15:12:15.919Z,8.81
2022-11-16T15:17:17.230Z,9.05
2022-11-16T15:22:18.787Z,8.98
2022-11-16T15:27:20.068Z,8.77
2022-11-16T15:32:21.365Z,8.80
2022-11-16T15:37:22.621Z,8.92
2022-11-16T15:42:23.883Z,9.15
2022-11-16T15:47:25.167Z,8.95
2022-11-16T15:52:26.463Z,9.15
2022-11-16T15:57:27.753Z,9.36
2022-11-16T16:02:29.044Z,9.50
2022-11-16T16:07:30.424Z,9.54
2022-11-16T16:12:31.850Z,9.55
2022-11-16T16:17:33.192Z,9.53
2022-11-16T16:22:34.571Z,9.54
2022-11-16T16:27:36.352Z,9.72
2022-11-16T16:32:37.646Z,9.75
2022-11-16T16:37:39.098Z,9.83
2022-11-16T16:42:41.323Z,9.75
2022-11-16T16:47:42.898Z,9.62
2022-11-16T16:52:44.180Z,9.73
2022-11-16T16:57:45.582Z,9.68
2022-11-16T17:02:46.953Z,9.72
2022-11-16T17:07:50.648Z,9.75
2022-11-16T17:12:51.948Z,9.62
2022-11-16T17:17:53.240Z,9.83
2022-11-16T17:22:54.596Z,9.84
2022-11-16T17:27:56.067Z,9.74
2022-11-16T17:32:57.422Z,9.80
2022-11-16T17:37:58.861Z,9.95
2022-11-16T17:43:00.225Z,9.96
2022-11-16T17:48:01.671Z,9.54
2022-11-16T17:53:02.990Z,9.27
2022-11-16T17:58:04.389Z,9.12
2022-11-16T18:03:05.811Z,9.13
2022-11-16T18:08:08.063Z,9.14
2022-11-16T18:13:09.284Z,9.08
2022-11-16T18:18:10.633Z,9.14
2022-11-16T18:23:11.884Z,9.50
2022-11-16T18:28:13.132Z,9.56
2022-11-16T18:33:14.346Z,9.30
2022-11-16T18:38:19.070Z,9.04
2022-11-16T18:43:20.627Z,8.83
2022-11-16T18:48:21.867Z,8.89
2022-11-16T18:53:23.151Z,8.96
2022-11-16T18:58:49.199Z,8.83
2022-11-16T19:03:45.905Z,8.76
2022-11-16T19:08:53.660Z,8.70
2022-11-16T19:13:56.449Z,8.62
2022-11-16T19:18:58.105Z,8.39
2022-11-16T19:23:59.406Z,8.30
2022-11-16T19:29:04.080Z,8.38
2022-11-16T19:34:05.505Z,8.48
2022-11-16T19:39:06.809Z,8.40
2022-11-16T19:44:08.165Z,8.21
2022-11-16T19:49:19.450Z,8.58
2022-11-16T19:54:21.114Z,8.41
2022-11-16T19:59:22.375Z,8.70
2022-11-16T20:04:25.482Z,8.64
2022-11-16T20:09:26.767Z,8.53
2022-11-16T20:14:28.115Z,8.36
2022-11-16T20:19:29.403Z,8.31
2022-11-16T20:24:30.667Z,8.53
2022-11-16T20:29:31.922Z,8.57
2022-11-16T20:39:57.102Z,8.69
2022-11-16T20:50:22.922Z,8.65
2022-11-16T20:55:24.144Z,8.64
2022-11-16T21:00:25.624Z,8.60
2022-11-16T21:05:26.941Z,8.63
2022-11-16T21:10:28.459Z,8.84
2022-11-16T21:15:29.664Z,8.85
2022-11-16T21:20:31.456Z,8.86
2022-11-16T21:25:32.689Z,8.90
2022-11-16T21:30:33.993Z,8.96
2022-11-16T21:35:35.277Z,8.66
2022-11-16T21:40:36.546Z,8.67
2022-11-16T21:45:37.742Z,8.64
2022-11-16T21:50:39.066Z,8.68
2022-11-16T21:55:40.379Z,8.64
2022-11-16T22:00:41.639Z,8.75
2022-11-16T22:06:02.655Z,8.61
2022-11-16T22:11:04.118Z,8.45
2022-11-16T22:16:05.445Z,8.49
2022-11-16T22:21:06.755Z,8.23
2022-11-16T22:26:08.015Z,8.21
2022-11-16T22:31:09.639Z,8.19
2022-11-16T22:36:10.927Z,8.21
2022-11-16T22:41:12.163Z,8.18
2022-11-16T22:46:13.410Z,8.22
2022-11-16T22:51:14.655Z,8.22
2022-11-16T22:56:15.923Z,8.04
2022-11-16T23:01:17.149Z,8.28
2022-11-16T23:06:18.354Z,8.11
2022-11-16T23:11:38.420Z,7.85
2022-11-16T23:16:42.217Z,7.93
2022-11-16T23:22:02.137Z,7.78
2022-11-16T23:27:22.134Z,7.81
2022-11-16T23:32:23.427Z,7.77
2022-11-16T23:37:24.637Z,7.92
2022-11-16T23:42:44.680Z,7.80
2022-11-16T23:47:45.892Z,7.65
2022-11-16T23:52:47.137Z,7.50
2022-11-16T23:57:57.233Z,7.41
